createdAt,value
2019-05-05T00:02:58.193Z,98.70
2019-05-05T00:08:04.914Z,98.70
2019-05-05T00:13:14.905Z,98.90
2019-05-05T00:18:21.734Z,99.10
2019-05-05T00:23:26.535Z,98.80
2019-05-05T00:28:31.322Z,98.20
2019-05-05T00:33:36.649Z,98.60
2019-05-05T00:38:41.448Z,98.60
2019-05-05T00:43:46.310Z,98.20
2019-05-05T00:48:51.163Z,97.70
2019-05-05T00:53:56.039Z,97.80
2019-05-05T00:59:04.494Z,97.90
2019-05-05T01:04:10.122Z,97.80
2019-05-05T01:09:16.701Z,98.10
2019-05-05T01:14:21.629Z,98.30
2019-05-05T01:19:26.545Z,98.20
2019-05-05T01:24:31.430Z,98.20
2019-05-05T01:29:36.405Z,98.40
2019-05-05T01:34:44.353Z,98.50
2019-05-05T01:39:54.684Z,98.00
2019-05-05T01:45:00.145Z,98.00
2019-05-05T01:50:18.374Z,98.30
2019-05-05T01:55:14.908Z,98.10
2019-05-05T02:00:20.325Z,98.30
2019-05-05T02:05:25.148Z,98.20
2019-05-05T02:10:29.990Z,97.70
2019-05-05T02:15:34.835Z,98.10
2019-05-05T02:20:50.608Z,98.00
2019-05-05T02:25:55.457Z,98.00
2019-05-05T02:31:05.578Z,98.10
2019-05-05T02:36:10.168Z,98.50
2019-05-05T02:41:15.802Z,98.90
2019-05-05T02:46:26.023Z,98.20
2019-05-05T02:51:35.269Z,98.40
2019-05-05T02:56:50.738Z,98.50
2019-05-05T03:01:58.119Z,98.50
2019-05-05T03:07:04.740Z,98.60
2019-05-05T03:12:11.180Z,98.50
2019-05-05T03:17:17.240Z,98.50
2019-05-05T03:22:23.724Z,98.50
2019-05-05T03:27:29.716Z,98.50
2019-05-05T03:32:36.212Z,98.20
2019-05-05T03:37:41.287Z,98.00
2019-05-05T03:42:47.772Z,98.20
2019-05-05T03:47:54.147Z,98.20
2019-05-05T03:52:59.257Z,98.70
2019-05-05T03:58:04.204Z,99.00
2019-05-05T04:03:09.717Z,99.00
2019-05-05T04:08:14.588Z,99.30
2019-05-05T04:13:19.785Z,98.70
2019-05-05T04:18:26.182Z,98.20
2019-05-05T04:23:31.033Z,98.40
2019-05-05T04:28:35.780Z,98.40
2019-05-05T04:33:40.725Z,98.50
2019-05-05T04:38:45.545Z,98.50
2019-05-05T04:43:50.382Z,98.40
2019-05-05T04:49:14.009Z,98.50
2019-05-05T04:54:20.696Z,98.20
2019-05-05T04:59:25.528Z,98.30
2019-05-05T05:04:37.737Z,98.30
2019-05-05T05:09:43.443Z,98.50
2019-05-05T05:14:48.402Z,98.50
2019-05-05T05:20:06.133Z,97.60
2019-05-05T05:25:10.970Z,97.90
2019-05-05T05:30:16.101Z,97.70
2019-05-05T05:35:21.016Z,97.30
2019-05-05T05:40:27.412Z,97.20
2019-05-05T05:45:34.279Z,97.10
2019-05-05T05:50:44.387Z,96.40
2019-05-05T05:55:49.409Z,95.50
2019-05-05T06:00:55.314Z,94.80
2019-05-05T06:06:00.134Z,93.90
2019-05-05T06:11:04.988Z,93.10
2019-05-05T06:16:10.219Z,91.80
2019-05-05T06:21:14.982Z,91.30
2019-05-05T06:26:19.827Z,91.40
2019-05-05T06:31:24.624Z,90.60
2019-05-05T06:36:29.484Z,91.00
2019-05-05T06:41:35.949Z,89.20
2019-05-05T06:47:00.388Z,87.50
2019-05-05T06:52:05.208Z,87.50
2019-05-05T06:57:10.042Z,86.50
2019-05-05T07:02:14.879Z,85.10
2019-05-05T07:07:19.733Z,84.50
2019-05-05T07:12:24.493Z,82.60
2019-05-05T07:17:29.366Z,82.20
2019-05-05T07:22:34.690Z,78.60
2019-05-05T07:27:40.017Z,77.90
2019-05-05T07:32:44.856Z,80.10
2019-05-05T07:37:49.677Z,81.50
2019-05-05T07:42:54.444Z,82.50
2019-05-05T07:47:59.347Z,80.50
2019-05-05T07:53:12.312Z,79.40
2019-05-05T07:58:10.624Z,71.70
2019-05-05T08:03:15.525Z,74.90
2019-05-05T08:08:20.362Z,74.40
2019-05-05T08:13:25.185Z,75.50
2019-05-05T08:18:43.739Z,74.30
2019-05-05T08:23:49.920Z,69.60
2019-05-05T08:28:57.696Z,71.20
2019-05-05T08:34:03.865Z,70.10
2019-05-05T08:39:08.976Z,67.20
2019-05-05T08:44:17.754Z,66.90
2019-05-05T08:49:24.378Z,64.90
2019-05-05T08:54:29.453Z,65.70
2019-05-05T08:59:34.428Z,68.80
2019-05-05T09:04:39.267Z,68.20
2019-05-05T09:09:44.310Z,66.90
2019-05-05T09:14:49.308Z,65.60
2019-05-05T09:19:56.059Z,61.00
2019-05-05T09:30:39.123Z,63.90
2019-05-05T09:35:44.500Z,65.20
2019-05-05T09:40:49.256Z,63.00
2019-05-05T09:45:55.871Z,60.20
2019-05-05T09:51:01.230Z,57.90
2019-05-05T09:56:05.998Z,58.10
2019-05-05T10:01:11.020Z,59.10
2019-05-05T10:06:15.938Z,57.00
2019-05-05T10:11:21.025Z,54.40
2019-05-05T10:16:25.876Z,52.60
2019-05-05T10:21:30.715Z,50.10
2019-05-05T10:26:35.550Z,51.20
2019-05-05T10:31:40.308Z,50.30
2019-05-05T10:36:45.168Z,49.10
2019-05-05T10:41:49.998Z,48.20
2019-05-05T10:46:54.839Z,48.90
2019-05-05T10:51:59.678Z,48.40
2019-05-05T10:57:04.498Z,49.50
2019-05-05T11:02:09.804Z,49.50
2019-05-05T11:07:14.793Z,50.40
2019-05-05T11:12:19.569Z,51.10
2019-05-05T11:17:24.773Z,46.40
2019-05-05T11:22:29.992Z,49.30
2019-05-05T11:27:34.817Z,49.00
2019-05-05T11:32:57.551Z,40.30
2019-05-05T11:38:03.612Z,42.70
2019-05-05T11:43:08.710Z,43.70
2019-05-05T11:48:15.175Z,42.30
2019-05-05T11:53:20.009Z,44.40
2019-05-05T11:58:25.054Z,44.20
2019-05-05T12:03:30.141Z,39.90
2019-05-05T12:08:35.760Z,43.70
2019-05-05T12:13:40.520Z,43.70
2019-05-05T12:18:45.352Z,40.60
2019-05-05T12:23:50.101Z,41.10
2019-05-05T12:28:56.580Z,37.30
2019-05-05T12:34:01.404Z,40.40
2019-05-05T12:39:08.873Z,41.00
2019-05-05T12:44:15.347Z,40.00
2019-05-05T12:49:22.593Z,38.60
2019-05-05T12:54:26.556Z,38.50
2019-05-05T12:59:50.648Z,37.40
2019-05-05T13:04:55.827Z,39.20
2019-05-05T13:10:01.055Z,37.30
2019-05-05T13:15:07.368Z,36.80
2019-05-05T13:20:20.104Z,36.50
2019-05-05T13:25:26.571Z,36.80
2019-05-05T13:30:31.466Z,34.60
2019-05-05T13:35:36.293Z,36.20
2019-05-05T13:40:41.192Z,34.90
2019-05-05T13:45:47.584Z,34.40
2019-05-05T13:50:54.458Z,32.60
2019-05-05T13:56:11.361Z,31.90
2019-05-05T14:01:05.737Z,31.90
2019-05-05T14:06:10.681Z,33.20
2019-05-05T14:11:15.525Z,31.30
2019-05-05T14:16:20.368Z,32.10
2019-05-05T14:21:25.139Z,32.00
2019-05-05T14:26:32.313Z,31.90
2019-05-05T14:31:37.995Z,33.60
2019-05-05T14:37:00.434Z,33.60
2019-05-05T14:42:05.461Z,33.10
2019-05-05T14:47:10.386Z,33.40
2019-05-05T14:52:15.144Z,33.70
2019-05-05T14:57:21.612Z,36.00
2019-05-05T15:02:26.550Z,36.10
2019-05-05T15:07:44.336Z,35.40
2019-05-05T15:12:50.404Z,33.80
2019-05-05T15:17:55.276Z,33.80
2019-05-05T15:23:00.039Z,35.60
2019-05-05T15:28:04.886Z,37.30
2019-05-05T15:33:09.702Z,36.90
2019-05-05T15:38:26.830Z,36.70
2019-05-05T15:43:33.403Z,37.60
2019-05-05T15:48:38.123Z,38.50
2019-05-05T15:53:42.945Z,39.70
2019-05-05T15:58:47.812Z,39.90
2019-05-05T16:03:54.238Z,40.30
2019-05-05T16:08:59.513Z,40.50
2019-05-05T16:14:04.354Z,40.30
2019-05-05T16:19:10.816Z,41.20
2019-05-05T16:24:20.158Z,40.60
2019-05-05T16:29:24.996Z,41.90
2019-05-05T16:34:29.820Z,43.20
2019-05-05T16:39:35.021Z,42.30
2019-05-05T16:44:39.822Z,43.60
2019-05-05T16:49:44.725Z,41.90
2019-05-05T16:55:00.260Z,42.80
2019-05-05T17:00:07.338Z,42.00
2019-05-05T17:05:13.718Z,41.90
2019-05-05T17:10:18.727Z,42.40
2019-05-05T17:15:28.173Z,43.00
2019-05-05T17:20:34.645Z,43.50
2019-05-05T17:25:39.548Z,43.90
2019-05-05T17:30:44.453Z,44.90
2019-05-05T17:35:49.426Z,45.40
2019-05-05T17:40:55.863Z,47.20
2019-05-05T17:46:08.306Z,44.30
2019-05-05T17:51:17.870Z,44.80
2019-05-05T17:56:23.872Z,45.20
2019-05-05T18:01:28.745Z,46.30
2019-05-05T18:06:38.211Z,48.40
2019-05-05T18:11:45.129Z,46.90
2019-05-05T18:16:50.075Z,51.20
2019-05-05T18:21:55.037Z,51.80
2019-05-05T18:26:59.916Z,53.50
2019-05-05T18:32:04.843Z,54.40
2019-05-05T18:37:09.722Z,56.10
2019-05-05T18:42:16.200Z,56.40
2019-05-05T18:47:21.484Z,57.60
2019-05-05T18:52:26.321Z,59.40
2019-05-05T18:57:31.144Z,60.30
2019-05-05T19:02:40.541Z,60.70
2019-05-05T19:07:55.403Z,64.40
2019-05-05T19:12:54.162Z,68.20
2019-05-05T19:17:59.368Z,68.90
2019-05-05T19:23:05.892Z,70.80
2019-05-05T19:28:10.894Z,71.40
2019-05-05T19:33:15.740Z,67.00
2019-05-05T19:38:20.583Z,67.70
2019-05-05T19:43:25.409Z,69.20
2019-05-05T19:48:30.187Z,73.50
2019-05-05T19:53:36.017Z,73.20
2019-05-05T19:58:54.268Z,78.80
2019-05-05T20:03:47.697Z,79.50
2019-05-05T20:08:53.693Z,78.90
2019-05-05T20:14:09.550Z,80.20
2019-05-05T20:19:05.331Z,81.00
2019-05-05T20:24:10.120Z,80.00
2019-05-05T20:29:17.174Z,82.00
2019-05-05T20:34:24.311Z,81.50
2019-05-05T20:39:29.262Z,83.10
2019-05-05T20:44:34.234Z,82.30
2019-05-05T20:49:39.086Z,80.10
2019-05-05T20:54:44.264Z,84.40
2019-05-05T20:59:49.079Z,84.40
2019-05-05T21:04:54.163Z,84.10
2019-05-05T21:09:59.077Z,85.10
2019-05-05T21:15:05.710Z,85.20
2019-05-05T21:20:10.756Z,85.10
2019-05-05T21:25:28.032Z,85.80
2019-05-05T21:30:33.677Z,86.80
2019-05-05T21:35:38.835Z,87.50
2019-05-05T21:40:44.090Z,87.50
2019-05-05T21:45:49.147Z,87.90
2019-05-05T21:50:55.558Z,89.90
2019-05-05T21:56:08.065Z,89.80
2019-05-05T22:01:18.542Z,90.20
2019-05-05T22:06:24.182Z,90.30
2019-05-05T22:11:29.314Z,90.20
2019-05-05T22:16:35.612Z,90.60
2019-05-05T22:21:44.808Z,90.70
2019-05-05T22:26:49.999Z,90.60
2019-05-05T22:31:54.844Z,90.80
2019-05-05T22:36:59.679Z,91.00
2019-05-05T22:42:04.788Z,90.90
2019-05-05T22:47:09.645Z,90.60
2019-05-05T22:52:14.702Z,90.60
2019-05-05T22:57:19.531Z,91.50
2019-05-05T23:02:26.000Z,91.30
2019-05-05T23:07:34.706Z,91.60
2019-05-05T23:12:38.890Z,91.30
2019-05-05T23:17:45.876Z,91.60
2019-05-05T23:22:55.063Z,91.90
2019-05-05T23:27:59.894Z,91.70
2019-05-05T23:33:04.649Z,91.90
2019-05-05T23:38:09.410Z,91.90
2019-05-05T23:43:14.255Z,91.80
2019-05-05T23:48:19.094Z,92.20
2019-05-05T23:53:25.004Z,92.50
2019-05-05T23:58:29.878Z,92.70
